Luquillo, PR (00773)

9:05 PM AST on January 25, 2015 (GMT -0400)
Fajardo PR Weather Cafe | Change Station
CLOSE
Current Station
Personal Weather Station
Location: Fajardo, FAJARDO
Elevation: 144 ft
Nearby Weather Stations

Elev 144 ft 18.32 °N, 65.66 °W | Updated 1 minute ago

Mostly Cloudy
Mostly Cloudy
73.7 °F
Feels Like 72 °F
N
4.0
Wind Variable Wind from West
Gusts 4.0 mph

Today
High -- | Low -- °F
--% Chance of Precip.
Yesterday
High -- | Low -- °F
Precip. -- in
6:57 AM 6:12 PM
Waxing Crescent, 37% visible
Pressure 30.04 in
Visibility 10.0 miles
Clouds Scattered Clouds 2500 ft
Mostly Cloudy 3000 ft
Heat Index 72 °F
Dew Point 71 °F
Humidity 90%
Rainfall 0.00 in
Snow Depth Not available.
UV 0 out of 12
Pollen Not available.
Air Quality Not available.
Flu Activity Not available.
METAR TJNR 260053Z AUTO 00000KT 10SM SCT025 BKN030 22/21 A3004 RMK AO2 SLP173 T02220206 $

More Conditions Fewer Conditions

Pressure 30.04 in
Visibility 10.0 miles
Clouds Scattered Clouds 2500 ft
Mostly Cloudy 3000 ft
Heat Index 72 °F
Dew Point 71 °F
Humidity 90%
Rainfall 0.00 in
Snow Depth Not available.
UV 0 out of 12
Pollen Not available.
Air Quality Not available.
Flu Activity Not available.
METAR TJNR 260053Z AUTO 00000KT 10SM SCT025 BKN030 22/21 A3004 RMK AO2 SLP173 T02220206 $

More Conditions Fewer Conditions

10-Day Weather Forecast

Almanac

Astronomy

Jan. 25, 2015 Rise Set
Actual Time
Civil Twilight
Nautical Twilight
Astronomical Twilight
Moon
Length of Visible Light
Length of Day
Tomorrow will be .
, % of the Moon is Illuminated

Today's Extremes

State Highs State Lows

Community

WunderPhotos

Upload Photos

1,790,031 photos uploaded!

WunderBlogs® & News

Nearby

Air Quality

  Air Quality AQ Index Pollutant
Not available.

Snow Depth

Station Depth Elevation

Earthquake Activity

City Distance Mag. Time & Date
Minimum magnitude displayed is 2.5.

Coastal Water Temperatures

Place Temperature

Nearby Weather Stations